createdAt,value
2022-12-22T00:00:25.573Z,78605.69
2022-12-22T00:03:13.041Z,78655.00
2022-12-22T00:06:00.207Z,78655.13
2022-12-22T00:08:47.313Z,78643.88
2022-12-22T00:11:34.448Z,78647.78
2022-12-22T00:14:21.443Z,78649.78
2022-12-22T00:17:08.432Z,78661.75
2022-12-22T00:19:55.837Z,78656.53
2022-12-22T00:22:44.636Z,78669.66
2022-12-22T00:25:36.796Z,78668.94
2022-12-22T00:28:33.048Z,78647.22
2022-12-22T00:31:20.945Z,78657.69
2022-12-22T00:34:08.388Z,78654.22
2022-12-22T00:36:56.327Z,78683.31
2022-12-22T00:39:44.523Z,78669.53
2022-12-22T00:42:31.404Z,78656.22
2022-12-22T00:45:18.383Z,78660.78
2022-12-22T00:48:06.052Z,78685.19
2022-12-22T00:50:55.887Z,78681.31
2022-12-22T00:53:43.528Z,78648.84
2022-12-22T00:56:30.800Z,78658.13
2022-12-22T00:59:19.987Z,78671.34
2022-12-22T01:02:07.869Z,78645.59
2022-12-22T01:04:57.214Z,78645.59
2022-12-22T01:07:46.672Z,78669.97
2022-12-22T01:10:34.729Z,78669.88
2022-12-22T01:13:29.706Z,78671.13
2022-12-22T01:16:16.732Z,78684.19
2022-12-22T01:19:04.136Z,78674.28
2022-12-22T01:21:51.677Z,78674.94
2022-12-22T01:24:38.667Z,78677.03
2022-12-22T01:27:29.544Z,78683.53
2022-12-22T01:30:16.979Z,78696.88
2022-12-22T01:33:04.938Z,78696.28
2022-12-22T01:35:53.959Z,78640.31
2022-12-22T01:38:41.091Z,78655.44
2022-12-22T01:41:34.061Z,78698.91
2022-12-22T01:44:21.348Z,78689.63
2022-12-22T01:47:08.727Z,78688.31
2022-12-22T01:49:57.333Z,78703.59
2022-12-22T01:52:51.989Z,78704.22
2022-12-22T01:55:45.706Z,78666.59
2022-12-22T01:59:00.622Z,78678.56
2022-12-22T02:01:50.336Z,78693.63
2022-12-22T02:04:40.991Z,78695.50
2022-12-22T02:07:57.076Z,78681.69
2022-12-22T02:10:44.559Z,78700.16
2022-12-22T02:13:52.607Z,78714.69
2022-12-22T02:17:11.873Z,78691.91
2022-12-22T02:20:20.529Z,78707.22
2022-12-22T02:23:23.598Z,78706.75
2022-12-22T02:26:34.970Z,78689.59
2022-12-22T02:29:24.301Z,78712.63
2022-12-22T02:32:11.788Z,78671.88
2022-12-22T02:34:59.753Z,78714.78
2022-12-22T02:37:57.313Z,78728.59
2022-12-22T02:41:04.506Z,78728.59
2022-12-22T02:44:35.684Z,78717.19
2022-12-22T02:47:46.764Z,78730.09
2022-12-22T02:50:43.139Z,78735.28
2022-12-22T02:53:33.078Z,78708.81
2022-12-22T02:56:24.715Z,78740.72
2022-12-22T02:59:13.407Z,78712.16
2022-12-22T03:02:04.107Z,78741.19
2022-12-22T03:04:51.425Z,78738.72
2022-12-22T03:07:38.817Z,78735.50
2022-12-22T03:10:26.933Z,78723.69
2022-12-22T03:13:17.616Z,78754.03
2022-12-22T03:16:04.954Z,78732.38
2022-12-22T03:18:52.418Z,78765.31
2022-12-22T03:21:39.487Z,78713.31
2022-12-22T03:24:27.013Z,78740.97
2022-12-22T03:26:56.439Z,78747.66
2022-12-22T03:29:25.071Z,78765.53
2022-12-22T03:31:53.943Z,78700.91
2022-12-22T03:34:22.551Z,78771.38
2022-12-22T03:36:51.532Z,78763.28
2022-12-22T03:39:20.336Z,78759.56
2022-12-22T03:42:07.539Z,78764.84
2022-12-22T03:44:54.694Z,78779.25
2022-12-22T03:47:24.082Z,78775.19
2022-12-22T03:49:52.583Z,78792.28
2022-12-22T03:52:21.619Z,78761.44
2022-12-22T03:54:50.311Z,78790.34
2022-12-22T03:57:19.129Z,78796.25
2022-12-22T03:59:47.966Z,78800.03
2022-12-22T04:02:16.986Z,78796.78
2022-12-22T04:04:45.847Z,78785.69
2022-12-22T04:07:14.744Z,78776.91
2022-12-22T04:10:03.241Z,78786.19
2022-12-22T04:12:50.493Z,78808.44
2022-12-22T04:15:19.405Z,78821.31
2022-12-22T04:17:48.106Z,78815.16
2022-12-22T04:20:17.136Z,78829.75
2022-12-22T04:22:46.245Z,78833.13
2022-12-22T04:25:16.261Z,78827.88
2022-12-22T04:27:45.058Z,78792.22
2022-12-22T04:30:14.364Z,78809.25
2022-12-22T04:32:43.697Z,78795.25
2022-12-22T04:35:13.100Z,78801.97
2022-12-22T04:37:41.739Z,78850.19
2022-12-22T04:40:10.855Z,78820.56
2022-12-22T04:42:39.850Z,78848.09
2022-12-22T04:45:09.957Z,78842.53
2022-12-22T04:47:38.867Z,78790.31
2022-12-22T04:50:08.115Z,78840.88
2022-12-22T04:52:37.116Z,78849.50
2022-12-22T04:55:07.612Z,78853.88
2022-12-22T04:57:40.854Z,78833.13
2022-12-22T05:00:11.398Z,78855.81
2022-12-22T05:02:40.725Z,78806.59
2022-12-22T05:05:10.294Z,78846.34
2022-12-22T05:07:39.132Z,78821.94
2022-12-22T05:10:09.796Z,78813.94
2022-12-22T05:12:59.108Z,78761.06
2022-12-22T05:15:31.641Z,78839.56
2022-12-22T05:18:02.271Z,78854.81
2022-12-22T05:20:32.093Z,78849.88
2022-12-22T05:23:01.093Z,78844.50
2022-12-22T05:25:34.692Z,78834.66
2022-12-22T05:28:04.625Z,78835.50
2022-12-22T05:30:33.532Z,78799.53
2022-12-22T05:33:05.431Z,78842.09
2022-12-22T05:35:34.249Z,78814.91
2022-12-22T05:38:02.961Z,78822.91
2022-12-22T05:40:32.902Z,78831.56
2022-12-22T05:43:01.702Z,78835.78
2022-12-22T05:45:31.351Z,78831.84
2022-12-22T05:48:00.047Z,78811.63
2022-12-22T05:50:29.679Z,78823.44
2022-12-22T05:53:07.256Z,78837.00
2022-12-22T05:55:36.626Z,78835.47
2022-12-22T05:58:05.192Z,78791.31
2022-12-22T06:00:34.342Z,78823.22
2022-12-22T06:03:03.201Z,78812.19
2022-12-22T06:05:32.708Z,78815.81
2022-12-22T06:08:01.693Z,78799.91
2022-12-22T06:10:49.366Z,78822.34
2022-12-22T06:13:36.661Z,78788.81
2022-12-22T06:16:05.907Z,78801.94
2022-12-22T06:18:34.908Z,78809.97
2022-12-22T06:21:03.988Z,78783.13
2022-12-22T06:23:32.617Z,78804.38
2022-12-22T06:26:03.318Z,78805.69
2022-12-22T06:28:32.763Z,78801.69
2022-12-22T06:31:02.708Z,78770.59
2022-12-22T06:33:32.059Z,78799.75
2022-12-22T06:36:06.594Z,78775.22
2022-12-22T06:38:36.336Z,78762.97
2022-12-22T06:41:04.901Z,78781.34
2022-12-22T06:43:33.906Z,78762.19
2022-12-22T06:46:03.043Z,78772.75
2022-12-22T06:48:31.876Z,78767.28
2022-12-22T06:51:01.724Z,78775.75
2022-12-22T06:53:30.605Z,78743.72
2022-12-22T06:55:59.919Z,78756.81
2022-12-22T06:58:29.011Z,78731.38
2022-12-22T07:00:58.762Z,78767.16
2022-12-22T07:03:27.809Z,78759.06
2022-12-22T07:05:56.730Z,78738.16
2022-12-22T07:11:11.530Z,78741.16
2022-12-22T07:13:40.738Z,78754.69
2022-12-22T07:16:11.630Z,78718.38
2022-12-22T07:18:43.763Z,78746.44
2022-12-22T07:21:14.942Z,78745.28
2022-12-22T07:23:44.030Z,78729.97
2022-12-22T07:26:13.766Z,78735.06
2022-12-22T07:28:44.239Z,78729.88
2022-12-22T07:31:13.562Z,78726.81
2022-12-22T07:33:42.747Z,78729.34
2022-12-22T07:36:20.032Z,78724.25
2022-12-22T07:38:51.550Z,78710.31
2022-12-22T07:41:39.661Z,78708.47
2022-12-22T07:44:09.445Z,78669.91
2022-12-22T07:46:39.787Z,78719.69
2022-12-22T07:49:28.218Z,78713.03
2022-12-22T07:51:59.028Z,78693.47
2022-12-22T07:54:28.748Z,78689.78
2022-12-22T07:56:57.860Z,78697.50
2022-12-22T07:59:26.553Z,78692.13
2022-12-22T08:01:55.698Z,78683.56
2022-12-22T08:04:24.804Z,78673.53
2022-12-22T08:06:53.380Z,78687.56
2022-12-22T08:09:24.094Z,78670.88
2022-12-22T08:11:53.169Z,78670.53
2022-12-22T08:14:22.028Z,78696.28
2022-12-22T08:16:51.349Z,78675.22
2022-12-22T08:19:20.586Z,78675.72
2022-12-22T08:21:52.876Z,78682.34
2022-12-22T08:24:22.933Z,78677.25
2022-12-22T08:26:56.975Z,78681.09
2022-12-22T08:29:34.413Z,78675.28
2022-12-22T08:32:03.506Z,78679.09
2022-12-22T08:34:32.647Z,78664.97
2022-12-22T08:37:07.022Z,78667.72
2022-12-22T08:39:39.640Z,78673.44
2022-12-22T08:42:12.630Z,78670.84
2022-12-22T08:44:42.783Z,78646.16
2022-12-22T08:47:16.617Z,78636.28
2022-12-22T08:49:47.451Z,78658.53
2022-12-22T08:52:18.728Z,78660.38
2022-12-22T08:54:48.451Z,78656.94
2022-12-22T08:57:17.336Z,78636.22
2022-12-22T08:59:49.198Z,78648.53
2022-12-22T09:02:18.214Z,78649.63
2022-12-22T09:04:48.443Z,78650.03
2022-12-22T09:07:19.355Z,78655.25
2022-12-22T09:09:48.670Z,78618.63
2022-12-22T09:12:18.926Z,78644.72
2022-12-22T09:14:48.340Z,78639.22
2022-12-22T09:17:16.912Z,78646.28
2022-12-22T09:19:46.477Z,78641.63
2022-12-22T09:22:15.324Z,78641.50
2022-12-22T09:24:44.642Z,78641.72
2022-12-22T09:27:13.843Z,78632.44
2022-12-22T09:29:44.237Z,78632.00
2022-12-22T09:32:13.593Z,78639.22
2022-12-22T09:34:42.241Z,78611.38
2022-12-22T09:37:12.225Z,78629.91
2022-12-22T09:39:43.693Z,78648.88
2022-12-22T09:42:21.261Z,78624.41
2022-12-22T09:44:52.623Z,78629.66
2022-12-22T09:47:41.094Z,78640.34
2022-12-22T09:50:17.996Z,78639.41
2022-12-22T09:53:07.669Z,78637.94
2022-12-22T09:55:46.226Z,78630.09
2022-12-22T09:58:26.500Z,78645.47
2022-12-22T10:01:38.799Z,78641.47
2022-12-22T10:04:31.831Z,78637.41
2022-12-22T10:07:10.405Z,78586.66
2022-12-22T10:09:50.051Z,78631.19
2022-12-22T10:12:24.721Z,78629.00
2022-12-22T10:14:56.495Z,78624.66
2022-12-22T10:17:36.151Z,78616.41
2022-12-22T10:20:28.779Z,78626.72
2022-12-22T10:23:14.088Z,78628.81
2022-12-22T10:28:52.043Z,78609.59
2022-12-22T10:31:25.459Z,78565.50
2022-12-22T10:33:58.172Z,78609.88
2022-12-22T10:36:33.615Z,78620.00
2022-12-22T10:39:04.334Z,78621.53
2022-12-22T10:41:39.831Z,78598.13
2022-12-22T10:44:18.299Z,78613.25
2022-12-22T10:46:53.191Z,78585.19
2022-12-22T10:52:33.827Z,78582.22
2022-12-22T10:55:19.200Z,78604.91
2022-12-22T10:57:50.605Z,78590.94
2022-12-22T11:00:31.299Z,78591.38
2022-12-22T11:03:02.883Z,78604.09
2022-12-22T11:05:33.632Z,78603.38
2022-12-22T11:08:18.236Z,78594.03
2022-12-22T11:11:17.098Z,78599.34
2022-12-22T11:13:58.933Z,78601.25
2022-12-22T11:16:42.818Z,78602.91
2022-12-22T11:19:48.903Z,78603.66
2022-12-22T11:22:40.316Z,78603.59
2022-12-22T11:26:05.470Z,78599.91
2022-12-22T11:29:10.813Z,78568.16
2022-12-22T11:31:55.546Z,78591.41
2022-12-22T11:34:47.718Z,78606.13
2022-12-22T11:37:41.273Z,78598.44
2022-12-22T11:40:50.128Z,78599.34
2022-12-22T11:43:46.598Z,78547.69
2022-12-22T11:46:37.004Z,78599.19
2022-12-22T11:49:20.377Z,78598.03
2022-12-22T11:52:23.370Z,78594.88
2022-12-22T11:54:59.142Z,78594.41
2022-12-22T11:57:38.444Z,78546.50
2022-12-22T12:00:19.689Z,78593.84
2022-12-22T12:03:24.711Z,78596.66
2022-12-22T12:06:06.797Z,78572.56
2022-12-22T12:08:53.262Z,78576.38
2022-12-22T12:11:29.735Z,78583.69
2022-12-22T12:14:01.894Z,78601.50
2022-12-22T12:17:01.117Z,78598.97
2022-12-22T12:19:37.098Z,78598.41
2022-12-22T12:22:12.131Z,78603.03
2022-12-22T12:25:03.641Z,78599.72
2022-12-22T12:27:42.367Z,78605.06
2022-12-22T12:33:22.760Z,78613.06
2022-12-22T12:36:07.382Z,78616.47
2022-12-22T12:39:08.043Z,78610.63
2022-12-22T12:42:08.678Z,78617.31
2022-12-22T12:44:42.917Z,78610.19
2022-12-22T12:47:31.132Z,78618.16
2022-12-22T12:50:34.762Z,78618.91
2022-12-22T12:53:10.322Z,78586.66
2022-12-22T12:55:44.067Z,78620.84
2022-12-22T12:58:34.180Z,78621.50
2022-12-22T13:01:07.571Z,78605.75
2022-12-22T13:06:54.594Z,78629.53
2022-12-22T13:09:50.390Z,78630.19
2022-12-22T13:12:36.122Z,78624.28
2022-12-22T13:15:06.539Z,78611.78
2022-12-22T13:17:49.485Z,78625.59
2022-12-22T13:20:29.209Z,78599.25
2022-12-22T13:23:02.847Z,78631.56
2022-12-22T13:25:57.261Z,78638.25
2022-12-22T13:28:29.624Z,78629.72
2022-12-22T13:31:22.901Z,78592.19
2022-12-22T13:34:46.284Z,78636.28
2022-12-22T13:37:28.954Z,78640.91
2022-12-22T13:40:33.132Z,78619.19
2022-12-22T13:43:14.575Z,78635.69
2022-12-22T13:46:07.166Z,78635.06
2022-12-22T13:48:48.285Z,78602.09
2022-12-22T13:51:36.760Z,78623.19
2022-12-22T13:54:16.592Z,78631.09
2022-12-22T13:56:48.198Z,78634.38
2022-12-22T13:59:29.996Z,78635.03
2022-12-22T14:02:05.657Z,78615.94
2022-12-22T14:04:35.754Z,78609.31
2022-12-22T14:07:23.055Z,78625.13
2022-12-22T14:09:57.415Z,78627.78
2022-12-22T14:12:41.289Z,78626.47
2022-12-22T14:15:19.126Z,78627.78
2022-12-22T14:17:53.162Z,78601.41
2022-12-22T14:20:30.085Z,78611.94
2022-12-22T14:23:22.649Z,78615.19
2022-12-22T14:25:55.405Z,78629.69
2022-12-22T14:28:31.547Z,78635.63
2022-12-22T14:31:02.672Z,78602.63
2022-12-22T14:33:36.158Z,78640.88
2022-12-22T14:36:07.868Z,78636.34
2022-12-22T14:38:51.086Z,78635.03
2022-12-22T14:41:59.082Z,78619.22
2022-12-22T14:44:46.353Z,78639.66
2022-12-22T14:47:24.243Z,78643.59
2022-12-22T14:50:15.656Z,78635.72
2022-12-22T14:52:52.617Z,78632.41
2022-12-22T14:55:36.843Z,78635.69
2022-12-22T14:58:13.751Z,78635.00
2022-12-22T15:00:49.744Z,78602.06
2022-12-22T15:03:40.240Z,78619.19
2022-12-22T15:06:29.264Z,78627.78
2022-12-22T15:09:13.171Z,78633.72
2022-12-22T15:11:48.132Z,78619.91
2022-12-22T15:14:23.614Z,78631.75
2022-12-22T15:17:03.898Z,78624.50
2022-12-22T15:19:36.844Z,78596.16
2022-12-22T15:22:09.772Z,78610.66
2022-12-22T15:24:39.875Z,78635.69
2022-12-22T15:27:09.575Z,78598.13
2022-12-22T15:29:39.618Z,78624.47
2022-12-22T15:32:16.638Z,78633.66
2022-12-22T15:34:47.132Z,78630.38
2022-12-22T15:37:17.385Z,78605.31
2022-12-22T15:39:48.584Z,78621.06
2022-12-22T15:42:19.268Z,78592.00
2022-12-22T15:44:49.518Z,78636.84
2022-12-22T15:47:24.607Z,78636.81
2022-12-22T15:49:55.013Z,78613.09
2022-12-22T15:52:28.227Z,78637.47
2022-12-22T15:55:00.448Z,78595.91
2022-12-22T15:57:31.383Z,78599.22
2022-12-22T16:00:01.895Z,78614.41
2022-12-22T16:02:33.570Z,78586.03
2022-12-22T16:05:04.024Z,78626.91
2022-12-22T16:07:34.631Z,78602.56
2022-12-22T16:10:07.142Z,78629.66
2022-12-22T16:12:38.487Z,78615.84
2022-12-22T16:15:16.107Z,78606.66
2022-12-22T16:17:47.522Z,78621.81
2022-12-22T16:20:17.784Z,78620.53
2022-12-22T16:22:47.771Z,78602.72
2022-12-22T16:25:22.604Z,78573.09
2022-12-22T16:27:53.444Z,78584.31
2022-12-22T16:30:26.181Z,78612.63
2022-12-22T16:32:57.885Z,78614.63
2022-12-22T16:35:30.778Z,78610.66
2022-12-22T16:38:02.319Z,78610.63
2022-12-22T16:40:35.098Z,78609.31
2022-12-22T16:46:02.268Z,78579.03
2022-12-22T16:48:44.909Z,78602.75
2022-12-22T16:51:40.491Z,78606.03
2022-12-22T16:54:16.037Z,78604.72
2022-12-22T16:56:53.606Z,78602.09
2022-12-22T16:59:43.667Z,78604.72
2022-12-22T17:02:36.940Z,78577.75
2022-12-22T17:05:14.768Z,78590.25
2022-12-22T17:07:46.745Z,78567.16
2022-12-22T17:10:19.079Z,78595.41
2022-12-22T17:12:55.218Z,78596.69
2022-12-22T17:15:26.073Z,78569.00
2022-12-22T17:17:57.655Z,78556.47
2022-12-22T17:20:30.573Z,78601.22
2022-12-22T17:23:05.375Z,78591.34
2022-12-22T17:25:35.744Z,78580.13
2022-12-22T17:28:06.227Z,78582.06
2022-12-22T17:30:37.070Z,78570.84
2022-12-22T17:33:07.209Z,78568.16
2022-12-22T17:35:38.588Z,78579.34
2022-12-22T17:38:23.871Z,78589.22
2022-12-22T17:40:54.914Z,78591.16
2022-12-22T17:43:28.046Z,78584.56
2022-12-22T17:45:58.038Z,78574.72
2022-12-22T17:48:27.690Z,78583.34
2022-12-22T17:50:58.203Z,78569.53
2022-12-22T17:53:29.160Z,78564.28
2022-12-22T17:56:09.551Z,78555.72
2022-12-22T17:58:39.963Z,78587.97
2022-12-22T18:01:20.837Z,78564.91
2022-12-22T18:03:51.199Z,78555.63
2022-12-22T18:06:23.434Z,78549.72
2022-12-22T18:08:55.178Z,78569.41
2022-12-22T18:11:25.436Z,78581.94
2022-12-22T18:13:58.262Z,78547.13
2022-12-22T18:16:28.462Z,78560.28
2022-12-22T18:18:57.701Z,78563.56
2022-12-22T18:21:30.271Z,78563.56
2022-12-22T18:24:02.067Z,78538.50
2022-12-22T18:26:33.373Z,78554.97
2022-12-22T18:29:05.111Z,78534.59
2022-12-22T18:31:35.387Z,78551.75
2022-12-22T18:34:06.637Z,78551.06
2022-12-22T18:36:37.370Z,78537.22
2022-12-22T18:39:11.817Z,78564.13
2022-12-22T18:41:44.922Z,78544.41
2022-12-22T18:44:18.876Z,78531.94
2022-12-22T18:46:49.805Z,78545.03
2022-12-22T18:49:19.388Z,78542.34
2022-12-22T18:51:48.825Z,78517.28
2022-12-22T18:54:39.229Z,78500.88
2022-12-22T18:57:16.012Z,78535.13
2022-12-22T18:59:46.472Z,78544.28
2022-12-22T19:02:29.704Z,78531.13
2022-12-22T19:04:59.555Z,78516.66
2022-12-22T19:07:28.969Z,78515.97
2022-12-22T19:09:58.837Z,78517.34
2022-12-22T19:12:29.865Z,78507.53
2022-12-22T19:15:04.902Z,78541.88
2022-12-22T19:17:34.628Z,78501.19
2022-12-22T19:20:03.841Z,78475.59
2022-12-22T19:22:33.208Z,78515.69
2022-12-22T19:25:03.148Z,78493.34
2022-12-22T19:27:37.125Z,78494.00
2022-12-22T19:30:07.446Z,78514.41
2022-12-22T19:32:49.293Z,78519.00
2022-12-22T19:35:22.140Z,78520.94
2022-12-22T19:37:53.265Z,78519.63
2022-12-22T19:40:29.194Z,78480.84
2022-12-22T19:42:59.891Z,78512.47
2022-12-22T19:45:37.251Z,78416.44
2022-12-22T19:48:18.899Z,78516.47
2022-12-22T19:50:49.729Z,78496.69
2022-12-22T19:53:20.288Z,78506.56
2022-12-22T19:55:56.673Z,78473.03
2022-12-22T19:58:32.503Z,78508.56
2022-12-22T20:01:02.034Z,78509.22
2022-12-22T20:03:31.621Z,78484.25
2022-12-22T20:06:01.066Z,78480.28
2022-12-22T20:08:30.652Z,78506.59
2022-12-22T20:11:01.820Z,78454.00
2022-12-22T20:13:35.188Z,78490.16
2022-12-22T20:16:06.236Z,78492.81
2022-12-22T20:18:36.137Z,78486.22
2022-12-22T20:21:09.393Z,78488.88
2022-12-22T20:23:40.332Z,78486.22
2022-12-22T20:26:16.682Z,78487.53
2022-12-22T20:28:46.011Z,78497.38
2022-12-22T20:31:17.348Z,78495.44
2022-12-22T20:33:48.098Z,78480.97
2022-12-22T20:36:25.727Z,78495.44
2022-12-22T20:38:56.912Z,78465.81
2022-12-22T20:41:26.992Z,78477.00
2022-12-22T20:43:56.287Z,78475.03
2022-12-22T20:46:28.742Z,78428.97
2022-12-22T20:49:01.375Z,78478.97
2022-12-22T20:51:33.702Z,78497.41
2022-12-22T20:54:03.664Z,78490.81
2022-12-22T20:56:39.180Z,78481.63
2022-12-22T20:59:21.973Z,78457.94
2022-12-22T21:01:53.585Z,78469.75
2022-12-22T21:04:29.307Z,78455.91
2022-12-22T21:06:59.148Z,78480.91
2022-12-22T21:09:28.503Z,78459.19
2022-12-22T21:11:57.832Z,78456.56
2022-12-22T21:14:27.135Z,78462.44
2022-12-22T21:16:59.512Z,78384.16
2022-12-22T21:19:29.318Z,78445.31
2022-12-22T21:21:58.417Z,78446.59
2022-12-22T21:24:27.666Z,78447.88
2022-12-22T21:26:57.581Z,78462.28
2022-12-22T21:29:28.413Z,78444.44
2022-12-22T21:31:57.764Z,78439.78
2022-12-22T21:34:26.986Z,78453.53
2022-12-22T21:37:04.881Z,78445.63
2022-12-22T21:39:45.872Z,78468.69
2022-12-22T21:42:24.349Z,78444.31
2022-12-22T21:44:54.377Z,78419.25
2022-12-22T21:47:23.604Z,78442.97
2022-12-22T21:49:53.192Z,78451.53
2022-12-22T21:52:22.481Z,78418.56
2022-12-22T21:54:52.433Z,78454.19
2022-12-22T21:57:21.789Z,78444.41
2022-12-22T21:59:51.307Z,78431.25
2022-12-22T22:02:20.689Z,78429.94
2022-12-22T22:04:54.529Z,78445.84
2022-12-22T22:07:25.229Z,78434.72
2022-12-22T22:09:55.405Z,78452.56
2022-12-22T22:12:33.696Z,78419.69
2022-12-22T22:15:03.305Z,78441.41
2022-12-22T22:17:32.388Z,78429.59
2022-12-22T22:20:02.536Z,78438.19
2022-12-22T22:22:32.130Z,78432.28
2022-12-22T22:25:01.532Z,78445.44
2022-12-22T22:27:30.777Z,78398.03
2022-12-22T22:29:59.953Z,78422.28
2022-12-22T22:32:29.112Z,78413.03
2022-12-22T22:34:59.203Z,78420.88
2022-12-22T22:37:28.495Z,78430.03
2022-12-22T22:39:58.601Z,78391.94
2022-12-22T22:42:28.016Z,78393.81
2022-12-22T22:44:58.285Z,78429.19
2022-12-22T22:47:27.546Z,78393.09
2022-12-22T22:49:56.894Z,78400.44
2022-12-22T22:52:26.144Z,78401.09
2022-12-22T22:54:55.509Z,78384.75
2022-12-22T22:57:24.887Z,78420.25
2022-12-22T22:59:54.146Z,78421.56
2022-12-22T23:02:23.622Z,78370.34
2022-12-22T23:04:53.395Z,78407.16
2022-12-22T23:07:22.557Z,78357.25
2022-12-22T23:09:52.424Z,78402.66
2022-12-22T23:12:21.778Z,78394.13
2022-12-22T23:14:51.136Z,78422.41
2022-12-22T23:17:20.393Z,78413.22
2022-12-22T23:19:50.267Z,78406.63
2022-12-22T23:22:19.520Z,78416.50
2022-12-22T23:24:48.888Z,78398.06
2022-12-22T23:27:18.641Z,78396.75
2022-12-22T23:29:47.952Z,78417.78
2022-12-22T23:32:17.432Z,78432.25
2022-12-22T23:34:46.886Z,78388.88
2022-12-22T23:37:19.742Z,78423.06
2022-12-22T23:39:49.170Z,78402.00
2022-12-22T23:42:18.734Z,78425.03
2022-12-22T23:44:49.282Z,78424.41
2022-12-22T23:47:18.494Z,78393.47
2022-12-22T23:49:47.720Z,78392.16
2022-12-22T23:52:17.069Z,78436.22
2022-12-22T23:54:46.068Z,78427.69
2022-12-22T23:57:15.419Z,78440.84
2022-12-22T23:59:44.654Z,78409.91
